Airfield :
LOGIN :

Register | Disclaimer

   EN    FR    IT 

 










Legend :    VFR   Marginal VFR   IFR   Intensive IFR   Very Intensive IFR
Visi :
Ceiling :
>= 8 km
>= 3000ft
5 to 8 km
1000 to 3000 ft
1500m to 5 km
500 to 1000 ft
800 to 1500m
200 to 500 ft
< 800m
< 200 ft
Symbols :   Thunderstorms  Fog  Heavy snow  Heavy precipitations  Wind > 20 kt
SIGMETs :     Misc.  Thunderstorms  Icing  Turbulence  Mountain Waves  Volcanic Ashes







- Airport Elevation : 147 ft
- IATA code : DUS


EDDL - Düsseldorf Int.

CURRENT METAR :
  • 210650Z 30010KT 270V340 4000 BR FEW002 BKN005 12/12 Q1010 TEMPO 6000

EXPIRED METARs :
  • 210620Z 31012KT 270V330 4200 -RA BR FEW002 BKN005 12/12 Q1010 TEMPO 6000
  • 210550Z 31012KT 280V340 3400 BR FEW002 OVC004 12/12 Q1010 TEMPO BKN006
  • 210520Z 30012KT 2400 BR FEW001 OVC003 12/12 Q1009 NOSIG
  • 210450Z 30012KT 2000 -RA BR FEW001 OVC003 12/12 Q1009 NOSIG
  • 210420Z 30012KT 2000 -RA BR SCT001 OVC003 12/12 Q1009 NOSIG
  • 210350Z 30009KT 260V330 2100 -RA BR OVC003 12/12 Q1009 RERA NOSIG

TAF TAF EDDL
Valid from the 21 at 06:00 until the 22 at 12:00 UTC


210500Z 2106/2212 30012KT 4000 BR SCT003 BKN008
TEMPO 2106/2115 1500 -RA BR BKN001
TEMPO 2110/2118 30015G25KT
PROB30
TEMPO 2110/2115 BKN012
BECMG 2115/2118 6000 BKN012
TEMPO 2118/2202 BKN020
BECMG 2120/2123 29007KT
TEMPO 2202/2208 4000 BR BKN008
BECMG 2208/2211 BKN025
No reported NOTAMs for that airfield.



MET'MAP, your aeronautical weather chart ! - Copyright ORBIFLY December 2007 - Disclaimer

ORBIFLY MET'MAP TEAM :

Programming & Development : Alexandra Zaïnal
Concept & Development : Baudouin d'Aumeries
Co-Development & Prog : Marc-Olivier Méhu
Technical & hardware support : Manuel Goepfert

Contact : metmap@orbifly.com




SOURCES & CREDITS :

   NOAA